PWSweather.com
Personal Weather Stations
Station Observations
20WH18
ZaandamNL 1506EL

ZaandamNL 1506EL

Lat: 52.4408333, Lon: 4.8216667

Elevation: 9

Station Type: Vantage Pro2 Plus

http://www.weerhaas.nl/

Latest ConditionsUpdated 2:45:07 AM GMT+01:01 Thursday, Jan 17, 2019
Currently Today's Max Today's Min Today's Average
Temperature 41.4°F5.2°C 41.4°F5.2°C 39.7°F4.3°C 40.5°F4.7°C
Dew Point 39.8°F4.3°C 39.9°F4.4°C 38.4°F3.6°C 39.1°F3.9°C
Winds 5.0 mph WSW8.0 kmh WSW 5.0 mph -8.0 kmh - - 2.6 mph 4.2 kmh
Wind Gusts 12.0 mph19.3 kmh 12.0 mph19.3 kmh - -
Humidity 94% 95% 94% 95%
Pressure 29.53 in1000.0 mb 29.53 in1000.0 mb 29.52 in999.7 mb -
Hour Temp Dew Point Humidity Winds Wind Gusts Pressure Precip Precip Rate Daily Precip Total
02:45 AM 41.4°F5.2°C 39.8°F4.3°C 94% 5.0 mph WSW8.0 kmh WSW 12.0 mph19.3 kmh 29.53 in1000.0 mb 0.00 in0.0 mm 0.00 in0.0 mm 0.01 in0.3 mm
02:40 AM 41.4°F5.2°C 39.8°F4.3°C 94% 3.0 mph WSW4.8 kmh WSW 10.0 mph16.1 kmh 29.53 in1000.0 mb 0.00 in0.0 mm 0.00 in0.0 mm 0.01 in0.3 mm
02:35 AM 41.4°F5.2°C 39.8°F4.3°C 94% 3.0 mph WSW4.8 kmh WSW 9.0 mph14.5 kmh 29.53 in1000.0 mb 0.00 in0.0 mm 0.00 in0.0 mm 0.01 in0.3 mm
02:30 AM 41.2°F5.1°C 39.6°F4.2°C 94% 3.0 mph WSW4.8 kmh WSW 10.0 mph16.1 kmh 29.53 in1000.0 mb 0.00 in0.0 mm 0.00 in0.0 mm 0.01 in0.3 mm
02:25 AM 41.2°F5.1°C 39.6°F4.2°C 94% 3.0 mph WSW4.8 kmh WSW 10.0 mph16.1 kmh 29.53 in1000.0 mb 0.00 in0.0 mm 0.00 in0.0 mm 0.01 in0.3 mm
02:20 AM 41.2°F5.1°C 39.6°F4.2°C 94% 3.0 mph WSW4.8 kmh WSW 9.0 mph14.5 kmh 29.53 in1000.0 mb 0.00 in0.0 mm 0.00 in0.0 mm 0.01 in0.3 mm
02:15 AM 41.2°F5.1°C 39.6°F4.2°C 94% 3.0 mph WSW4.8 kmh WSW 9.0 mph14.5 kmh 29.53 in1000.0 mb 0.00 in0.0 mm 0.00 in0.0 mm 0.01 in0.3 mm
02:10 AM 41.2°F5.1°C 39.6°F4.2°C 94% 3.0 mph WSW4.8 kmh WSW 9.0 mph14.5 kmh 29.53 in1000.0 mb 0.00 in0.0 mm 0.00 in0.0 mm 0.01 in0.3 mm
02:05 AM 41.2°F5.1°C 39.6°F4.2°C 94% 3.0 mph WSW4.8 kmh WSW 10.0 mph16.1 kmh 29.53 in1000.0 mb 0.00 in0.0 mm 0.00 in0.0 mm 0.01 in0.3 mm
02:00 AM 41.2°F5.1°C 39.6°F4.2°C 94% 3.0 mph WSW4.8 kmh WSW 10.0 mph16.1 kmh 29.53 in1000.0 mb 0.00 in0.0 mm 0.00 in0.0 mm 0.01 in0.3 mm
01:55 AM 41.2°F5.1°C 39.9°F4.4°C 95% 3.0 mph WSW4.8 kmh WSW 10.0 mph16.1 kmh 29.53 in1000.0 mb 0.00 in0.0 mm 0.00 in0.0 mm 0.01 in0.3 mm
01:50 AM 41.2°F5.1°C 39.9°F4.4°C 95% 4.0 mph WSW6.4 kmh WSW 10.0 mph16.1 kmh 29.53 in1000.0 mb 0.00 in0.0 mm 0.00 in0.0 mm 0.01 in0.3 mm
01:45 AM 40.8°F4.9°C 39.5°F4.2°C 95% 3.0 mph WSW4.8 kmh WSW 9.0 mph14.5 kmh 29.53 in1000.0 mb 0.00 in0.0 mm 0.00 in0.0 mm 0.01 in0.3 mm
01:40 AM 40.8°F4.9°C 39.5°F4.2°C 95% 2.0 mph WSW3.2 kmh WSW 7.0 mph11.3 kmh 29.53 in1000.0 mb 0.00 in0.0 mm 0.00 in0.0 mm 0.01 in0.3 mm
01:35 AM 40.6°F4.8°C 39.3°F4.1°C 95% 2.0 mph WSW3.2 kmh WSW 7.0 mph11.3 kmh 29.53 in1000.0 mb 0.00 in0.0 mm 0.00 in0.0 mm 0.01 in0.3 mm
01:30 AM 40.5°F4.7°C 39.1°F3.9°C 95% 2.0 mph WSW3.2 kmh WSW 6.0 mph9.7 kmh 29.53 in1000.0 mb 0.00 in0.0 mm 0.00 in0.0 mm 0.01 in0.3 mm
01:25 AM 40.3°F4.6°C 39.0°F3.9°C 95% 2.0 mph WSW3.2 kmh WSW 6.0 mph9.7 kmh 29.53 in1000.0 mb 0.00 in0.0 mm 0.00 in0.0 mm 0.01 in0.3 mm
01:20 AM 40.3°F4.6°C 39.0°F3.9°C 95% 2.0 mph SW3.2 kmh SW 8.0 mph12.9 kmh 29.53 in1000.0 mb 0.00 in0.0 mm 0.00 in0.0 mm 0.01 in0.3 mm
01:15 AM 40.3°F4.6°C 39.0°F3.9°C 95% 1.0 mph WSW1.6 kmh WSW 8.0 mph12.9 kmh 29.53 in1000.0 mb 0.00 in0.0 mm 0.00 in0.0 mm 0.01 in0.3 mm
01:10 AM 40.3°F4.6°C 39.0°F3.9°C 95% 2.0 mph SW3.2 kmh SW 9.0 mph14.5 kmh 29.53 in1000.0 mb 0.00 in0.0 mm 0.00 in0.0 mm 0.01 in0.3 mm
01:05 AM 40.1°F4.5°C 38.8°F3.8°C 95% 3.0 mph SW4.8 kmh SW 9.0 mph14.5 kmh 29.52 in999.7 mb 0.00 in0.0 mm 0.00 in0.0 mm 0.01 in0.3 mm
01:00 AM 39.9°F4.4°C 38.6°F3.7°C 95% 3.0 mph SW4.8 kmh SW 8.0 mph12.9 kmh 29.52 in999.7 mb 0.00 in0.0 mm 0.00 in0.0 mm 0.01 in0.3 mm
12:55 AM 39.9°F4.4°C 38.6°F3.7°C 95% 3.0 mph SW4.8 kmh SW 8.0 mph12.9 kmh 29.52 in999.7 mb 0.00 in0.0 mm 0.00 in0.0 mm 0.01 in0.3 mm
12:50 AM 39.9°F4.4°C 38.6°F3.7°C 95% 3.0 mph SW4.8 kmh SW 8.0 mph12.9 kmh 29.52 in999.7 mb 0.00 in0.0 mm 0.00 in0.0 mm 0.01 in0.3 mm
12:45 AM 39.9°F4.4°C 38.6°F3.7°C 95% 3.0 mph SW4.8 kmh SW 8.0 mph12.9 kmh 29.52 in999.7 mb 0.00 in0.0 mm 0.00 in0.0 mm 0.01 in0.3 mm
12:40 AM 39.7°F4.3°C 38.4°F3.6°C 95% 2.0 mph SW3.2 kmh SW 8.0 mph12.9 kmh 29.52 in999.7 mb 0.00 in0.0 mm 0.00 in0.0 mm 0.01 in0.3 mm
12:35 AM 39.9°F4.4°C 38.6°F3.7°C 95% 2.0 mph SW3.2 kmh SW 6.0 mph9.7 kmh 29.53 in1000.0 mb 0.00 in0.0 mm 0.00 in0.0 mm 0.01 in0.3 mm
12:30 AM 39.7°F4.3°C 38.4°F3.6°C 95% 2.0 mph SW3.2 kmh SW 7.0 mph11.3 kmh 29.53 in1000.0 mb 0.00 in0.0 mm 0.00 in0.0 mm 0.01 in0.3 mm
12:25 AM 39.7°F4.3°C 38.4°F3.6°C 95% 3.0 mph SW4.8 kmh SW 8.0 mph12.9 kmh 29.53 in1000.0 mb 0.00 in0.0 mm 0.00 in0.0 mm 0.01 in0.3 mm
12:20 AM 39.7°F4.3°C 38.4°F3.6°C 95% 3.0 mph SW4.8 kmh SW 8.0 mph12.9 kmh 29.52 in999.7 mb 0.01 in0.3 mm 0.00 in0.0 mm 0.01 in0.3 mm
12:15 AM 39.7°F4.3°C 38.4°F3.6°C 95% 3.0 mph SW4.8 kmh SW 7.0 mph11.3 kmh 29.52 in999.7 mb 0.01 in0.3 mm 0.00 in0.0 mm 0.01 in0.3 mm
12:10 AM 39.9°F4.4°C 38.6°F3.7°C 95% 2.0 mph SW3.2 kmh SW 7.0 mph11.3 kmh 29.52 in999.7 mb 0.01 in0.3 mm 0.00 in0.0 mm 0.01 in0.3 mm
12:05 AM 39.9°F4.4°C 38.6°F3.7°C 95% 1.0 mph SW1.6 kmh SW 4.0 mph6.4 kmh 29.52 in999.7 mb 0.01 in0.3 mm 0.00 in0.0 mm 0.01 in0.3 mm
12:00 AM 39.9°F4.4°C 38.6°F3.7°C 95% 1.0 mph SW1.6 kmh SW 5.0 mph8.0 kmh 29.52 in999.7 mb 0.01 in0.3 mm 0.00 in0.0 mm 0.01 in0.3 mm